M I D A S
Marine Information and Data Acquisition System
Tripno 1686 of the Zeeleeuw from 2009-05-04 08:00:00 to 2009-05-04 17:00:00
Back to CruiseResearch ActivitiesStationsMapUnderway DataData graphs

EquipmentUnitsComment
TimeDGPSUTC
LatitudeDGPSDM.mWGS84
LongitudeDGPSDM.mWGS84
TemperatureSBE03/SBE38deg celciusITS90
ConductivitySBE21S/mITS90
SalinitySBE21 Practical Salinity Units
ChlorophylAChelsea fluorimeterg/lCalibrated in Aceton
Missing or incorrect values are displayed as -999
Sea surface data collected by the RV Zeeleeuw from 2009-05-04 08:00:00 to 2009-05-04 17:00:00
Time Latitude Longitude Temperature Conductivity Salinity ChlorophylA
2009-05-04 13:47:24 51°12.403 2°41.061 -999 1.186991 7.421084 -1.209513
2009-05-04 13:48:24 51°12.512 2°41.297 -999 1.187094 7.422175 -1.209513
2009-05-04 13:49:25 51°12.623 2°41.54 -999 1.186888 7.42144 -1.209513
2009-05-04 13:50:24 51°12.726 2°41.78 -999 1.186888 7.422097 -1.244337
2009-05-04 13:51:24 51°12.825 2°42.028 -999 1.186888 7.422623 -1.244337
2009-05-04 13:52:24 51°12.921 2°42.281 -999 1.186785 7.422322 -1.244337
2009-05-04 13:53:24 51°13.013 2°42.536 -999 1.186682 7.421888 -1.244337
2009-05-04 13:54:24 51°13.096 2°42.797 -999 1.186578 7.421587 -1.209513
2009-05-04 13:55:24 51°13.166 2°43.067 -999 1.186475 7.421417 -1.209513
2009-05-04 13:56:25 51°13.239 2°43.337 -999 1.186475 7.422074 -1.209513
2009-05-04 13:57:24 51°13.311 2°43.594 -999 1.186372 7.422036 -1.244337
2009-05-04 13:58:25 51°13.387 2°43.856 -999 1.186269 7.422129 -1.244337
2009-05-04 13:59:24 51°13.461 2°44.111 -999 1.186269 7.422655 -1.209513
2009-05-04 14:00:25 51°13.531 2°44.381 -999 1.186166 7.422616 -1.244337
2009-05-04 14:01:24 51°13.603 2°44.64 -999 1.186166 7.423143 -1.209513
2009-05-04 14:02:25 51°13.678 2°44.907 -999 1.186063 7.423236 -1.244337
2009-05-04 14:03:25 51°13.748 2°45.174 -999 1.18596 7.422934 -1.244337
2009-05-04 14:04:24 51°13.82 2°45.431 -999 1.185857 7.422764 -1.244337
2009-05-04 14:05:25 51°13.894 2°45.698 -999 1.185754 7.422726 -1.244337
2009-05-04 14:06:24 51°13.963 2°45.959 -999 1.185754 7.423384 -1.244337
2009-05-04 14:07:25 51°14.038 2°46.225 -999 1.185651 7.423478 -1.244337
2009-05-04 14:08:24 51°14.102 2°46.484 -999 1.185444 7.422874 -1.244337
2009-05-04 14:09:24 51°14.121 2°46.763 -999 1.185857 7.427508 -1.209513
2009-05-04 14:10:24 51°14.127 2°47.046 -999 1.185548 7.426075 -1.244337
2009-05-04 14:11:24 51°14.128 2°47.332 -999 1.185445 7.425905 -1.244337
2009-05-04 14:12:25 51°14.125 2°47.626 -999 1.185238 7.424511 -1.244337
2009-05-04 14:13:24 51°14.124 2°47.909 -999 1.185135 7.424077 -1.244337
2009-05-04 14:14:25 51°14.122 2°48.2 -999 1.185032 7.423907 -1.279161
2009-05-04 14:15:24 51°14.146 2°48.476 -999 1.184929 7.424133 -1.244337
2009-05-04 14:16:25 51°14.181 2°48.757 -999 1.184826 7.423963 -1.244337
2009-05-04 14:17:24 51°14.215 2°49.031 -999 1.184723 7.423661 -1.244337
2009-05-04 14:18:24 51°14.247 2°49.309 -999 1.18462 7.423623 -1.244337
2009-05-04 14:19:25 51°14.28 2°49.59 -999 1.184517 7.423584 -1.244337
2009-05-04 14:20:24 51°14.312 2°49.862 -999 1.184414 7.423414 -1.244337
2009-05-04 14:21:25 51°14.344 2°50.145 -999 1.18431 7.423376 -1.244337
2009-05-04 14:22:24 51°14.373 2°50.419 -999 1.184207 7.422942 -1.244337
2009-05-04 14:23:25 51°14.404 2°50.702 -999 1.184104 7.422772 -1.244337
2009-05-04 14:24:24 51°14.435 2°50.973 -999 1.18431 7.424696 -1.244337
2009-05-04 14:25:25 51°14.467 2°51.255 -999 1.184104 7.423696 -1.244337
2009-05-04 14:26:24 51°14.497 2°51.529 -999 1.184001 7.423394 -0.721976
2009-05-04 14:27:25 51°14.536 2°51.81 -999 1.183898 7.42296 -0.826448
2009-05-04 14:28:25 51°14.557 2°52.089 -999 1.183898 7.423488 -0.861272
2009-05-04 14:29:24 51°14.548 2°52.371 -999 1.183795 7.423186 -0.93092
2009-05-04 14:30:25 51°14.532 2°52.664 -999 1.183795 7.423846 -0.93092
2009-05-04 14:31:24 51°14.517 2°52.949 -999 1.183692 7.423412 -0.93092
2009-05-04 14:32:25 51°14.513 2°53.242 -999 1.183589 7.423242 -0.93092
2009-05-04 14:33:24 51°14.511 2°53.529 -999 1.183589 7.424298 -0.93092
2009-05-04 14:34:24 51°14.525 2°53.82 -999 1.183589 7.424827 -0.93092
2009-05-04 14:35:24 51°14.538 2°54.112 -999 1.183486 7.424657 -0.965744
2009-05-04 14:36:25 51°14.522 2°54.402 -999 1.183383 7.424355 -0.965744
2009-05-04 14:37:25 51°14.481 2°54.685 -999 1.183383 7.424355 -0.965744
2009-05-04 14:38:24 51°14.413 2°54.947 -999 1.183279 7.423656 -0.965744
2009-05-04 14:39:25 51°14.313 2°55.2 -999 1.183279 7.42392 -0.965744
2009-05-04 14:40:25 51°14.193 2°55.356 -999 1.183176 7.423883 -0.965744
2009-05-04 14:41:26 51°14.085 2°55.458 -999 1.183176 7.424279 -1.000568